sensor_id;sensor_type;location;lat;lon;timestamp;P1;durP1;ratioP1;P2;durP2;ratioP2
12177;SDS011;6152;48.728;9.256;2024-03-02T00:01:12;14.85;;;10.57;;
12177;SDS011;6152;48.728;9.256;2024-03-02T00:03:39;16.80;;;10.82;;
12177;SDS011;6152;48.728;9.256;2024-03-02T00:06:07;14.23;;;10.13;;
12177;SDS011;6152;48.728;9.256;2024-03-02T00:08:34;13.27;;;9.93;;
12177;SDS011;6152;48.728;9.256;2024-03-02T00:11:00;14.32;;;9.45;;
12177;SDS011;6152;48.728;9.256;2024-03-02T00:13:30;15.15;;;10.18;;
12177;SDS011;6152;48.728;9.256;2024-03-02T00:15:57;14.73;;;9.88;;
12177;SDS011;6152;48.728;9.256;2024-03-02T00:18:34;14.48;;;9.95;;
12177;SDS011;6152;48.728;9.256;2024-03-02T00:21:01;13.73;;;9.75;;
12177;SDS011;6152;48.728;9.256;2024-03-02T00:23:31;13.52;;;9.50;;
12177;SDS011;6152;48.728;9.256;2024-03-02T00:25:58;16.33;;;10.57;;
12177;SDS011;6152;48.728;9.256;2024-03-02T00:28:26;16.17;;;10.02;;
12177;SDS011;6152;48.728;9.256;2024-03-02T00:31:04;16.90;;;10.63;;
12177;SDS011;6152;48.728;9.256;2024-03-02T00:33:36;14.63;;;9.68;;
12177;SDS011;6152;48.728;9.256;2024-03-02T00:36:15;17.50;;;10.50;;
12177;SDS011;6152;48.728;9.256;2024-03-02T00:38:48;14.90;;;9.93;;
12177;SDS011;6152;48.728;9.256;2024-03-02T00:44:02;16.70;;;10.32;;
12177;SDS011;6152;48.728;9.256;2024-03-02T00:49:01;18.52;;;10.80;;
12177;SDS011;6152;48.728;9.256;2024-03-02T00:51:32;15.48;;;10.68;;
12177;SDS011;6152;48.728;9.256;2024-03-02T00:54:00;18.30;;;11.25;;
12177;SDS011;6152;48.728;9.256;2024-03-02T00:56:29;14.50;;;10.30;;
12177;SDS011;6152;48.728;9.256;2024-03-02T00:58:56;17.15;;;11.13;;
12177;SDS011;6152;48.728;9.256;2024-03-02T01:01:22;16.42;;;10.43;;
12177;SDS011;6152;48.728;9.256;2024-03-02T01:03:49;18.02;;;10.85;;
12177;SDS011;6152;48.728;9.256;2024-03-02T01:06:15;15.57;;;11.13;;
12177;SDS011;6152;48.728;9.256;2024-03-02T01:08:42;16.40;;;10.65;;
12177;SDS011;6152;48.728;9.256;2024-03-02T01:11:08;16.80;;;10.27;;
12177;SDS011;6152;48.728;9.256;2024-03-02T01:13:35;20.35;;;11.30;;
12177;SDS011;6152;48.728;9.256;2024-03-02T01:16:01;18.10;;;11.73;;
12177;SDS011;6152;48.728;9.256;2024-03-02T01:18:29;16.27;;;10.70;;
12177;SDS011;6152;48.728;9.256;2024-03-02T01:20:55;16.85;;;10.90;;
12177;SDS011;6152;48.728;9.256;2024-03-02T01:23:22;17.25;;;11.27;;
12177;SDS011;6152;48.728;9.256;2024-03-02T01:25:48;21.65;;;11.68;;
12177;SDS011;6152;48.728;9.256;2024-03-02T01:28:15;17.15;;;10.95;;
12177;SDS011;6152;48.728;9.256;2024-03-02T01:30:42;18.58;;;11.50;;
12177;SDS011;6152;48.728;9.256;2024-03-02T01:33:08;19.65;;;11.52;;
12177;SDS011;6152;48.728;9.256;2024-03-02T01:35:34;16.73;;;11.13;;
12177;SDS011;6152;48.728;9.256;2024-03-02T01:38:00;19.48;;;11.10;;
12177;SDS011;6152;48.728;9.256;2024-03-02T01:40:27;16.25;;;11.23;;
12177;SDS011;6152;48.728;9.256;2024-03-02T01:42:53;17.52;;;10.88;;
12177;SDS011;6152;48.728;9.256;2024-03-02T01:45:20;17.08;;;11.65;;
12177;SDS011;6152;48.728;9.256;2024-03-02T01:47:47;17.60;;;11.32;;
12177;SDS011;6152;48.728;9.256;2024-03-02T01:50:13;16.83;;;10.63;;
12177;SDS011;6152;48.728;9.256;2024-03-02T01:52:40;17.20;;;10.73;;
12177;SDS011;6152;48.728;9.256;2024-03-02T01:55:06;16.93;;;10.57;;
12177;SDS011;6152;48.728;9.256;2024-03-02T01:57:33;17.17;;;11.03;;
12177;SDS011;6152;48.728;9.256;2024-03-02T02:00:00;17.00;;;10.40;;
12177;SDS011;6152;48.728;9.256;2024-03-02T02:02:26;16.03;;;10.80;;
12177;SDS011;6152;48.728;9.256;2024-03-02T02:04:52;16.73;;;10.50;;
12177;SDS011;6152;48.728;9.256;2024-03-02T02:07:19;18.23;;;11.03;;
12177;SDS011;6152;48.728;9.256;2024-03-02T02:09:45;18.10;;;11.03;;
12177;SDS011;6152;48.728;9.256;2024-03-02T02:12:11;16.37;;;10.73;;
12177;SDS011;6152;48.728;9.256;2024-03-02T02:14:37;17.33;;;10.97;;
12177;SDS011;6152;48.728;9.256;2024-03-02T02:17:05;18.00;;;11.20;;
12177;SDS011;6152;48.728;9.256;2024-03-02T02:19:31;15.13;;;10.53;;
12177;SDS011;6152;48.728;9.256;2024-03-02T02:21:57;16.33;;;11.13;;
12177;SDS011;6152;48.728;9.256;2024-03-02T02:24:23;17.37;;;11.00;;
12177;SDS011;6152;48.728;9.256;2024-03-02T02:26:49;18.13;;;11.17;;
12177;SDS011;6152;48.728;9.256;2024-03-02T02:29:15;17.23;;;11.03;;
12177;SDS011;6152;48.728;9.256;2024-03-02T02:31:42;19.27;;;10.83;;
12177;SDS011;6152;48.728;9.256;2024-03-02T02:34:08;18.92;;;10.35;;
12177;SDS011;6152;48.728;9.256;2024-03-02T02:36:34;17.55;;;10.45;;
12177;SDS011;6152;48.728;9.256;2024-03-02T02:39:04;17.98;;;11.10;;
12177;SDS011;6152;48.728;9.256;2024-03-02T02:41:32;17.85;;;10.75;;
12177;SDS011;6152;48.728;9.256;2024-03-02T02:43:58;17.77;;;11.52;;
12177;SDS011;6152;48.728;9.256;2024-03-02T02:46:24;18.27;;;11.38;;
12177;SDS011;6152;48.728;9.256;2024-03-02T02:48:50;19.42;;;11.48;;
12177;SDS011;6152;48.728;9.256;2024-03-02T02:51:18;17.90;;;11.43;;
12177;SDS011;6152;48.728;9.256;2024-03-02T02:53:44;18.80;;;10.93;;
12177;SDS011;6152;48.728;9.256;2024-03-02T02:56:10;19.27;;;11.13;;
12177;SDS011;6152;48.728;9.256;2024-03-02T02:58:36;18.08;;;11.43;;
12177;SDS011;6152;48.728;9.256;2024-03-02T03:01:02;22.05;;;12.02;;
12177;SDS011;6152;48.728;9.256;2024-03-02T03:03:28;21.15;;;12.63;;
12177;SDS011;6152;48.728;9.256;2024-03-02T03:05:55;19.17;;;12.68;;
12177;SDS011;6152;48.728;9.256;2024-03-02T03:08:21;18.70;;;12.10;;
12177;SDS011;6152;48.728;9.256;2024-03-02T03:10:48;17.05;;;11.38;;
12177;SDS011;6152;48.728;9.256;2024-03-02T03:13:14;22.30;;;12.10;;
12177;SDS011;6152;48.728;9.256;2024-03-02T03:15:40;19.50;;;12.18;;
12177;SDS011;6152;48.728;9.256;2024-03-02T03:18:06;21.83;;;13.55;;
12177;SDS011;6152;48.728;9.256;2024-03-02T03:20:33;20.40;;;12.55;;
12177;SDS011;6152;48.728;9.256;2024-03-02T03:22:59;18.20;;;11.45;;
12177;SDS011;6152;48.728;9.256;2024-03-02T03:25:25;20.90;;;11.93;;
12177;SDS011;6152;48.728;9.256;2024-03-02T03:27:51;21.92;;;13.05;;
12177;SDS011;6152;48.728;9.256;2024-03-02T03:30:18;21.45;;;12.80;;
12177;SDS011;6152;48.728;9.256;2024-03-02T03:32:44;22.67;;;13.15;;
12177;SDS011;6152;48.728;9.256;2024-03-02T03:35:10;21.02;;;13.52;;
12177;SDS011;6152;48.728;9.256;2024-03-02T03:37:38;21.10;;;12.98;;
12177;SDS011;6152;48.728;9.256;2024-03-02T03:40:04;22.58;;;13.43;;
12177;SDS011;6152;48.728;9.256;2024-03-02T03:42:37;21.98;;;14.07;;
12177;SDS011;6152;48.728;9.256;2024-03-02T03:45:04;22.05;;;12.93;;
12177;SDS011;6152;48.728;9.256;2024-03-02T03:47:31;20.23;;;13.43;;
12177;SDS011;6152;48.728;9.256;2024-03-02T03:49:57;20.65;;;12.57;;
12177;SDS011;6152;48.728;9.256;2024-03-02T03:52:24;19.88;;;12.55;;
12177;SDS011;6152;48.728;9.256;2024-03-02T03:54:50;19.92;;;13.07;;
12177;SDS011;6152;48.728;9.256;2024-03-02T03:57:16;19.83;;;12.43;;
12177;SDS011;6152;48.728;9.256;2024-03-02T03:59:42;21.73;;;13.48;;
12177;SDS011;6152;48.728;9.256;2024-03-02T04:02:09;22.13;;;13.23;;
12177;SDS011;6152;48.728;9.256;2024-03-02T04:04:37;22.65;;;13.60;;
12177;SDS011;6152;48.728;9.256;2024-03-02T04:07:03;18.55;;;12.45;;
12177;SDS011;6152;48.728;9.256;2024-03-02T04:09:30;22.10;;;12.68;;
12177;SDS011;6152;48.728;9.256;2024-03-02T04:11:56;21.95;;;13.18;;
12177;SDS011;6152;48.728;9.256;2024-03-02T04:14:22;22.13;;;13.25;;
12177;SDS011;6152;48.728;9.256;2024-03-02T04:16:48;21.85;;;12.63;;
12177;SDS011;6152;48.728;9.256;2024-03-02T04:19:14;22.17;;;12.85;;
12177;SDS011;6152;48.728;9.256;2024-03-02T04:21:40;22.35;;;13.73;;
12177;SDS011;6152;48.728;9.256;2024-03-02T04:24:06;24.63;;;13.10;;
12177;SDS011;6152;48.728;9.256;2024-03-02T04:26:33;22.20;;;13.15;;
12177;SDS011;6152;48.728;9.256;2024-03-02T04:28:59;21.52;;;13.70;;
12177;SDS011;6152;48.728;9.256;2024-03-02T04:31:25;19.38;;;12.80;;
12177;SDS011;6152;48.728;9.256;2024-03-02T04:33:51;21.98;;;13.38;;
12177;SDS011;6152;48.728;9.256;2024-03-02T04:36:18;22.83;;;13.43;;
12177;SDS011;6152;48.728;9.256;2024-03-02T04:38:46;22.95;;;14.63;;
12177;SDS011;6152;48.728;9.256;2024-03-02T04:41:12;22.13;;;13.55;;
12177;SDS011;6152;48.728;9.256;2024-03-02T04:43:38;19.92;;;13.15;;
12177;SDS011;6152;48.728;9.256;2024-03-02T04:46:04;24.65;;;14.73;;
12177;SDS011;6152;48.728;9.256;2024-03-02T04:48:32;22.77;;;13.50;;
12177;SDS011;6152;48.728;9.256;2024-03-02T04:50:59;24.67;;;14.75;;
12177;SDS011;6152;48.728;9.256;2024-03-02T04:53:25;22.88;;;14.13;;
12177;SDS011;6152;48.728;9.256;2024-03-02T04:55:51;21.02;;;13.57;;
12177;SDS011;6152;48.728;9.256;2024-03-02T04:58:35;23.33;;;12.82;;
12177;SDS011;6152;48.728;9.256;2024-03-02T05:01:01;22.85;;;12.90;;
12177;SDS011;6152;48.728;9.256;2024-03-02T05:03:27;22.75;;;14.65;;
12177;SDS011;6152;48.728;9.256;2024-03-02T05:05:53;21.13;;;13.10;;
12177;SDS011;6152;48.728;9.256;2024-03-02T05:08:19;23.83;;;13.77;;
12177;SDS011;6152;48.728;9.256;2024-03-02T05:10:45;19.80;;;12.80;;
12177;SDS011;6152;48.728;9.256;2024-03-02T05:13:11;22.70;;;13.70;;
12177;SDS011;6152;48.728;9.256;2024-03-02T05:15:37;21.40;;;13.95;;
12177;SDS011;6152;48.728;9.256;2024-03-02T05:18:04;23.00;;;14.00;;
12177;SDS011;6152;48.728;9.256;2024-03-02T05:20:30;21.33;;;13.57;;
12177;SDS011;6152;48.728;9.256;2024-03-02T05:22:56;21.90;;;13.57;;
12177;SDS011;6152;48.728;9.256;2024-03-02T05:25:22;24.25;;;13.82;;
12177;SDS011;6152;48.728;9.256;2024-03-02T05:27:48;23.27;;;13.18;;
12177;SDS011;6152;48.728;9.256;2024-03-02T05:30:14;24.50;;;14.05;;
12177;SDS011;6152;48.728;9.256;2024-03-02T05:32:40;23.80;;;13.93;;
12177;SDS011;6152;48.728;9.256;2024-03-02T05:35:07;21.85;;;13.38;;
12177;SDS011;6152;48.728;9.256;2024-03-02T05:37:33;24.80;;;13.77;;
12177;SDS011;6152;48.728;9.256;2024-03-02T05:39:59;26.75;;;14.75;;
12177;SDS011;6152;48.728;9.256;2024-03-02T05:42:26;24.52;;;14.80;;
12177;SDS011;6152;48.728;9.256;2024-03-02T05:44:52;22.52;;;13.25;;
12177;SDS011;6152;48.728;9.256;2024-03-02T05:47:19;24.83;;;15.27;;
12177;SDS011;6152;48.728;9.256;2024-03-02T05:49:45;26.50;;;14.32;;
12177;SDS011;6152;48.728;9.256;2024-03-02T05:52:12;25.23;;;15.18;;
12177;SDS011;6152;48.728;9.256;2024-03-02T05:54:38;25.83;;;14.20;;
12177;SDS011;6152;48.728;9.256;2024-03-02T05:57:04;23.65;;;13.60;;
12177;SDS011;6152;48.728;9.256;2024-03-02T05:59:57;24.10;;;14.93;;
12177;SDS011;6152;48.728;9.256;2024-03-02T06:02:23;24.30;;;13.75;;
12177;SDS011;6152;48.728;9.256;2024-03-02T06:04:53;26.27;;;14.50;;
12177;SDS011;6152;48.728;9.256;2024-03-02T06:07:21;24.80;;;14.00;;
12177;SDS011;6152;48.728;9.256;2024-03-02T06:09:47;28.60;;;15.98;;
12177;SDS011;6152;48.728;9.256;2024-03-02T06:12:15;26.05;;;14.63;;
12177;SDS011;6152;48.728;9.256;2024-03-02T06:14:42;29.85;;;15.45;;
12177;SDS011;6152;48.728;9.256;2024-03-02T06:17:09;20.20;;;14.23;;
12177;SDS011;6152;48.728;9.256;2024-03-02T06:19:35;24.23;;;14.20;;
12177;SDS011;6152;48.728;9.256;2024-03-02T06:22:01;26.70;;;14.82;;
12177;SDS011;6152;48.728;9.256;2024-03-02T06:24:27;26.20;;;15.68;;
12177;SDS011;6152;48.728;9.256;2024-03-02T06:26:53;24.63;;;14.23;;
12177;SDS011;6152;48.728;9.256;2024-03-02T06:29:19;27.45;;;14.45;;
12177;SDS011;6152;48.728;9.256;2024-03-02T06:31:46;24.80;;;15.25;;
12177;SDS011;6152;48.728;9.256;2024-03-02T06:34:12;24.02;;;14.23;;
12177;SDS011;6152;48.728;9.256;2024-03-02T06:36:39;23.83;;;13.93;;
12177;SDS011;6152;48.728;9.256;2024-03-02T06:39:06;24.38;;;14.05;;
12177;SDS011;6152;48.728;9.256;2024-03-02T06:41:32;24.95;;;14.75;;
12177;SDS011;6152;48.728;9.256;2024-03-02T06:43:58;24.60;;;13.68;;
12177;SDS011;6152;48.728;9.256;2024-03-02T06:46:25;22.45;;;13.60;;
12177;SDS011;6152;48.728;9.256;2024-03-02T06:48:51;25.38;;;14.30;;
12177;SDS011;6152;48.728;9.256;2024-03-02T06:51:17;21.75;;;13.73;;
12177;SDS011;6152;48.728;9.256;2024-03-02T06:53:43;20.20;;;12.00;;
12177;SDS011;6152;48.728;9.256;2024-03-02T06:56:09;21.95;;;12.90;;
12177;SDS011;6152;48.728;9.256;2024-03-02T06:58:35;19.00;;;12.98;;
12177;SDS011;6152;48.728;9.256;2024-03-02T07:01:01;22.88;;;14.23;;
12177;SDS011;6152;48.728;9.256;2024-03-02T07:03:28;22.77;;;13.48;;
12177;SDS011;6152;48.728;9.256;2024-03-02T07:05:54;23.65;;;14.85;;
12177;SDS011;6152;48.728;9.256;2024-03-02T07:08:20;23.63;;;13.73;;
12177;SDS011;6152;48.728;9.256;2024-03-02T07:10:46;22.55;;;14.02;;
12177;SDS011;6152;48.728;9.256;2024-03-02T07:13:12;22.50;;;13.32;;
12177;SDS011;6152;48.728;9.256;2024-03-02T07:15:38;25.05;;;14.30;;
12177;SDS011;6152;48.728;9.256;2024-03-02T07:18:23;22.15;;;14.02;;
12177;SDS011;6152;48.728;9.256;2024-03-02T07:20:49;25.20;;;14.45;;
12177;SDS011;6152;48.728;9.256;2024-03-02T07:23:15;22.17;;;13.82;;
12177;SDS011;6152;48.728;9.256;2024-03-02T07:25:41;22.50;;;12.90;;
12177;SDS011;6152;48.728;9.256;2024-03-02T07:28:07;19.75;;;12.02;;
12177;SDS011;6152;48.728;9.256;2024-03-02T07:30:33;20.02;;;11.38;;
12177;SDS011;6152;48.728;9.256;2024-03-02T07:32:59;18.70;;;11.73;;
12177;SDS011;6152;48.728;9.256;2024-03-02T07:35:26;17.42;;;11.50;;
12177;SDS011;6152;48.728;9.256;2024-03-02T07:37:52;17.92;;;11.55;;
12177;SDS011;6152;48.728;9.256;2024-03-02T07:40:19;19.40;;;12.02;;
12177;SDS011;6152;48.728;9.256;2024-03-02T07:42:45;16.25;;;9.70;;
12177;SDS011;6152;48.728;9.256;2024-03-02T07:45:11;17.70;;;11.20;;
12177;SDS011;6152;48.728;9.256;2024-03-02T07:47:37;15.50;;;10.15;;
12177;SDS011;6152;48.728;9.256;2024-03-02T07:50:04;15.13;;;10.50;;
12177;SDS011;6152;48.728;9.256;2024-03-02T07:52:31;15.68;;;10.90;;
12177;SDS011;6152;48.728;9.256;2024-03-02T07:54:58;14.87;;;9.77;;
12177;SDS011;6152;48.728;9.256;2024-03-02T07:57:24;14.30;;;9.77;;
12177;SDS011;6152;48.728;9.256;2024-03-02T07:59:51;12.10;;;8.83;;
12177;SDS011;6152;48.728;9.256;2024-03-02T08:02:17;15.07;;;9.17;;
12177;SDS011;6152;48.728;9.256;2024-03-02T08:04:43;11.60;;;8.20;;
12177;SDS011;6152;48.728;9.256;2024-03-02T08:07:11;13.57;;;7.97;;
12177;SDS011;6152;48.728;9.256;2024-03-02T08:09:37;10.83;;;7.87;;
12177;SDS011;6152;48.728;9.256;2024-03-02T08:12:03;10.57;;;8.18;;
12177;SDS011;6152;48.728;9.256;2024-03-02T08:14:29;10.37;;;8.27;;
12177;SDS011;6152;48.728;9.256;2024-03-02T08:16:55;8.90;;;6.72;;
12177;SDS011;6152;48.728;9.256;2024-03-02T08:19:22;9.63;;;7.07;;
12177;SDS011;6152;48.728;9.256;2024-03-02T08:21:48;10.27;;;6.90;;
12177;SDS011;6152;48.728;9.256;2024-03-02T08:24:14;9.63;;;6.07;;
12177;SDS011;6152;48.728;9.256;2024-03-02T08:26:41;9.55;;;6.57;;
12177;SDS011;6152;48.728;9.256;2024-03-02T08:29:08;8.73;;;6.30;;
12177;SDS011;6152;48.728;9.256;2024-03-02T08:31:34;8.32;;;6.25;;
12177;SDS011;6152;48.728;9.256;2024-03-02T08:34:00;8.68;;;5.97;;
12177;SDS011;6152;48.728;9.256;2024-03-02T08:36:27;7.75;;;6.03;;
12177;SDS011;6152;48.728;9.256;2024-03-02T08:38:53;8.70;;;5.97;;
12177;SDS011;6152;48.728;9.256;2024-03-02T08:41:19;7.07;;;5.88;;
12177;SDS011;6152;48.728;9.256;2024-03-02T08:43:45;9.07;;;5.72;;
12177;SDS011;6152;48.728;9.256;2024-03-02T08:46:11;7.25;;;5.93;;
12177;SDS011;6152;48.728;9.256;2024-03-02T08:48:38;8.00;;;5.70;;
12177;SDS011;6152;48.728;9.256;2024-03-02T08:51:04;6.32;;;5.03;;
12177;SDS011;6152;48.728;9.256;2024-03-02T08:53:32;6.40;;;5.05;;
12177;SDS011;6152;48.728;9.256;2024-03-02T08:55:58;5.57;;;4.82;;
12177;SDS011;6152;48.728;9.256;2024-03-02T08:58:25;6.50;;;4.97;;
12177;SDS011;6152;48.728;9.256;2024-03-02T09:00:51;6.55;;;4.38;;
12177;SDS011;6152;48.728;9.256;2024-03-02T09:03:17;7.10;;;4.57;;
12177;SDS011;6152;48.728;9.256;2024-03-02T09:05:43;8.10;;;4.78;;
12177;SDS011;6152;48.728;9.256;2024-03-02T09:08:09;6.18;;;4.60;;
12177;SDS011;6152;48.728;9.256;2024-03-02T09:10:35;5.50;;;4.78;;
12177;SDS011;6152;48.728;9.256;2024-03-02T09:13:03;4.78;;;4.28;;
12177;SDS011;6152;48.728;9.256;2024-03-02T09:15:29;6.75;;;4.47;;
12177;SDS011;6152;48.728;9.256;2024-03-02T09:17:55;7.22;;;4.07;;
12177;SDS011;6152;48.728;9.256;2024-03-02T09:20:22;6.82;;;4.45;;
12177;SDS011;6152;48.728;9.256;2024-03-02T09:22:48;5.03;;;3.90;;
12177;SDS011;6152;48.728;9.256;2024-03-02T09:25:14;5.45;;;4.30;;
12177;SDS011;6152;48.728;9.256;2024-03-02T09:27:41;4.07;;;3.65;;
12177;SDS011;6152;48.728;9.256;2024-03-02T09:30:07;3.95;;;3.53;;
12177;SDS011;6152;48.728;9.256;2024-03-02T09:32:35;4.38;;;3.97;;
12177;SDS011;6152;48.728;9.256;2024-03-02T09:35:01;4.70;;;3.95;;
12177;SDS011;6152;48.728;9.256;2024-03-02T09:37:28;5.18;;;4.05;;
12177;SDS011;6152;48.728;9.256;2024-03-02T09:39:54;3.80;;;3.50;;
12177;SDS011;6152;48.728;9.256;2024-03-02T09:42:20;4.28;;;3.47;;
12177;SDS011;6152;48.728;9.256;2024-03-02T09:44:47;5.55;;;3.63;;
12177;SDS011;6152;48.728;9.256;2024-03-02T09:47:13;3.97;;;3.58;;
12177;SDS011;6152;48.728;9.256;2024-03-02T09:49:40;4.60;;;4.20;;
12177;SDS011;6152;48.728;9.256;2024-03-02T09:52:06;4.55;;;4.15;;
12177;SDS011;6152;48.728;9.256;2024-03-02T09:54:33;4.90;;;4.10;;
12177;SDS011;6152;48.728;9.256;2024-03-02T09:56:59;6.18;;;3.80;;
12177;SDS011;6152;48.728;9.256;2024-03-02T09:59:27;4.28;;;3.88;;
12177;SDS011;6152;48.728;9.256;2024-03-02T10:02:03;6.40;;;3.78;;
12177;SDS011;6152;48.728;9.256;2024-03-02T10:04:32;4.93;;;4.38;;
12177;SDS011;6152;48.728;9.256;2024-03-02T10:09:36;4.30;;;3.60;;
12177;SDS011;6152;48.728;9.256;2024-03-02T10:12:06;3.85;;;3.55;;
12177;SDS011;6152;48.728;9.256;2024-03-02T10:14:34;3.60;;;3.30;;
12177;SDS011;6152;48.728;9.256;2024-03-02T10:17:04;3.78;;;3.47;;
12177;SDS011;6152;48.728;9.256;2024-03-02T10:19:31;3.17;;;2.97;;
12177;SDS011;6152;48.728;9.256;2024-03-02T10:22:00;3.83;;;3.10;;
12177;SDS011;6152;48.728;9.256;2024-03-02T10:24:27;2.90;;;2.70;;
12177;SDS011;6152;48.728;9.256;2024-03-02T10:27:00;3.40;;;3.10;;
12177;SDS011;6152;48.728;9.256;2024-03-02T10:29:29;3.22;;;3.03;;
12177;SDS011;6152;48.728;9.256;2024-03-02T10:31:55;3.15;;;2.95;;
12177;SDS011;6152;48.728;9.256;2024-03-02T10:34:24;3.10;;;2.83;;
12177;SDS011;6152;48.728;9.256;2024-03-02T10:36:50;2.65;;;2.45;;
12177;SDS011;6152;48.728;9.256;2024-03-02T10:39:16;3.25;;;2.38;;
12177;SDS011;6152;48.728;9.256;2024-03-02T10:41:43;2.55;;;2.35;;
12177;SDS011;6152;48.728;9.256;2024-03-02T10:44:10;2.60;;;2.40;;
12177;SDS011;6152;48.728;9.256;2024-03-02T10:46:37;2.92;;;2.47;;
12177;SDS011;6152;48.728;9.256;2024-03-02T10:49:04;3.88;;;2.35;;
12177;SDS011;6152;48.728;9.256;2024-03-02T10:51:33;3.15;;;2.45;;
12177;SDS011;6152;48.728;9.256;2024-03-02T10:54:01;3.70;;;2.92;;
12177;SDS011;6152;48.728;9.256;2024-03-02T10:56:29;4.78;;;2.92;;
12177;SDS011;6152;48.728;9.256;2024-03-02T10:59:03;2.20;;;2.10;;
12177;SDS011;6152;48.728;9.256;2024-03-02T11:01:50;3.10;;;2.80;;
12177;SDS011;6152;48.728;9.256;2024-03-02T11:04:23;2.58;;;2.38;;
12177;SDS011;6152;48.728;9.256;2024-03-02T11:06:51;2.63;;;2.42;;
12177;SDS011;6152;48.728;9.256;2024-03-02T11:09:22;2.10;;;2.00;;
12177;SDS011;6152;48.728;9.256;2024-03-02T11:14:54;2.00;;;1.75;;
12177;SDS011;6152;48.728;9.256;2024-03-02T11:17:21;1.90;;;1.80;;
12177;SDS011;6152;48.728;9.256;2024-03-02T11:19:49;2.08;;;1.95;;
12177;SDS011;6152;48.728;9.256;2024-03-02T11:22:16;2.00;;;1.90;;
12177;SDS011;6152;48.728;9.256;2024-03-02T11:24:49;1.63;;;1.52;;
12177;SDS011;6152;48.728;9.256;2024-03-02T11:33:07;1.40;;;1.40;;
12177;SDS011;6152;48.728;9.256;2024-03-02T11:35:52;1.48;;;1.35;;
12177;SDS011;6152;48.728;9.256;2024-03-02T11:38:18;2.22;;;1.02;;
12177;SDS011;6152;48.728;9.256;2024-03-02T11:40:44;0.90;;;0.90;;
12177;SDS011;6152;48.728;9.256;2024-03-02T11:43:10;0.80;;;0.77;;
12177;SDS011;6152;48.728;9.256;2024-03-02T11:45:37;0.70;;;0.70;;
12177;SDS011;6152;48.728;9.256;2024-03-02T11:48:06;0.70;;;0.70;;
12177;SDS011;6152;48.728;9.256;2024-03-02T11:50:34;1.83;;;0.70;;
12177;SDS011;6152;48.728;9.256;2024-03-02T11:53:08;0.90;;;0.70;;
12177;SDS011;6152;48.728;9.256;2024-03-02T11:55:36;0.52;;;0.50;;
12177;SDS011;6152;48.728;9.256;2024-03-02T11:58:03;0.40;;;0.40;;
12177;SDS011;6152;48.728;9.256;2024-03-02T12:00:30;0.57;;;0.50;;
12177;SDS011;6152;48.728;9.256;2024-03-02T12:03:09;0.50;;;0.50;;
12177;SDS011;6152;48.728;9.256;2024-03-02T12:05:37;0.40;;;0.40;;
12177;SDS011;6152;48.728;9.256;2024-03-02T12:08:04;0.60;;;0.50;;
12177;SDS011;6152;48.728;9.256;2024-03-02T12:10:32;0.50;;;0.50;;
12177;SDS011;6152;48.728;9.256;2024-03-02T12:13:05;1.25;;;0.50;;
12177;SDS011;6152;48.728;9.256;2024-03-02T12:15:33;0.70;;;0.70;;
12177;SDS011;6152;48.728;9.256;2024-03-02T12:18:01;0.60;;;0.60;;
12177;SDS011;6152;48.728;9.256;2024-03-02T12:20:29;1.27;;;0.50;;
12177;SDS011;6152;48.728;9.256;2024-03-02T12:22:58;0.50;;;0.50;;
12177;SDS011;6152;48.728;9.256;2024-03-02T12:25:25;0.70;;;0.70;;
12177;SDS011;6152;48.728;9.256;2024-03-02T12:27:53;0.88;;;0.57;;
12177;SDS011;6152;48.728;9.256;2024-03-02T12:30:21;1.15;;;0.50;;
12177;SDS011;6152;48.728;9.256;2024-03-02T12:32:48;0.40;;;0.40;;
12177;SDS011;6152;48.728;9.256;2024-03-02T12:35:15;0.40;;;0.40;;
12177;SDS011;6152;48.728;9.256;2024-03-02T12:37:46;0.40;;;0.40;;
12177;SDS011;6152;48.728;9.256;2024-03-02T12:40:14;0.95;;;0.35;;
12177;SDS011;6152;48.728;9.256;2024-03-02T12:42:43;1.10;;;0.50;;
12177;SDS011;6152;48.728;9.256;2024-03-02T12:45:10;1.67;;;0.60;;
12177;SDS011;6152;48.728;9.256;2024-03-02T12:47:38;1.05;;;0.80;;
12177;SDS011;6152;48.728;9.256;2024-03-02T12:50:06;0.68;;;0.68;;
12177;SDS011;6152;48.728;9.256;2024-03-02T12:52:33;0.50;;;0.50;;
12177;SDS011;6152;48.728;9.256;2024-03-02T12:55:00;0.60;;;0.60;;
12177;SDS011;6152;48.728;9.256;2024-03-02T12:57:29;1.63;;;0.50;;
12177;SDS011;6152;48.728;9.256;2024-03-02T12:59:59;0.43;;;0.43;;
12177;SDS011;6152;48.728;9.256;2024-03-02T13:02:33;0.50;;;0.50;;
12177;SDS011;6152;48.728;9.256;2024-03-02T13:05:00;1.50;;;0.47;;
12177;SDS011;6152;48.728;9.256;2024-03-02T13:07:27;0.50;;;0.50;;
12177;SDS011;6152;48.728;9.256;2024-03-02T13:09:54;0.63;;;0.63;;
12177;SDS011;6152;48.728;9.256;2024-03-02T13:12:21;2.33;;;0.60;;
12177;SDS011;6152;48.728;9.256;2024-03-02T13:14:49;1.58;;;0.50;;
12177;SDS011;6152;48.728;9.256;2024-03-02T13:17:19;0.40;;;0.40;;
12177;SDS011;6152;48.728;9.256;2024-03-02T13:19:56;0.40;;;0.40;;
12177;SDS011;6152;48.728;9.256;2024-03-02T13:22:23;2.53;;;0.68;;
12177;SDS011;6152;48.728;9.256;2024-03-02T13:24:51;1.40;;;0.40;;
12177;SDS011;6152;48.728;9.256;2024-03-02T13:27:19;0.55;;;0.55;;
12177;SDS011;6152;48.728;9.256;2024-03-02T13:29:46;5.97;;;0.50;;
12177;SDS011;6152;48.728;9.256;2024-03-02T13:32:13;0.50;;;0.50;;
12177;SDS011;6152;48.728;9.256;2024-03-02T13:34:39;0.50;;;0.50;;
12177;SDS011;6152;48.728;9.256;2024-03-02T13:37:06;0.70;;;0.60;;
12177;SDS011;6152;48.728;9.256;2024-03-02T13:39:33;0.70;;;0.57;;
12177;SDS011;6152;48.728;9.256;2024-03-02T13:42:05;1.20;;;0.60;;
12177;SDS011;6152;48.728;9.256;2024-03-02T13:44:33;0.50;;;0.40;;
12177;SDS011;6152;48.728;9.256;2024-03-02T13:47:00;0.65;;;0.52;;
12177;SDS011;6152;48.728;9.256;2024-03-02T13:49:26;0.65;;;0.50;;
12177;SDS011;6152;48.728;9.256;2024-03-02T13:51:58;0.38;;;0.38;;
12177;SDS011;6152;48.728;9.256;2024-03-02T13:54:26;0.47;;;0.40;;
12177;SDS011;6152;48.728;9.256;2024-03-02T13:56:52;0.50;;;0.50;;
12177;SDS011;6152;48.728;9.256;2024-03-02T13:59:18;0.85;;;0.50;;
12177;SDS011;6152;48.728;9.256;2024-03-02T14:01:44;0.50;;;0.40;;
12177;SDS011;6152;48.728;9.256;2024-03-02T14:04:10;0.30;;;0.30;;
12177;SDS011;6152;48.728;9.256;2024-03-02T14:06:36;0.57;;;0.40;;
12177;SDS011;6152;48.728;9.256;2024-03-02T14:09:02;0.40;;;0.40;;
12177;SDS011;6152;48.728;9.256;2024-03-02T14:11:29;0.40;;;0.40;;
12177;SDS011;6152;48.728;9.256;2024-03-02T14:13:55;0.80;;;0.40;;
12177;SDS011;6152;48.728;9.256;2024-03-02T14:16:22;0.30;;;0.30;;
12177;SDS011;6152;48.728;9.256;2024-03-02T14:18:48;0.32;;;0.30;;
12177;SDS011;6152;48.728;9.256;2024-03-02T14:21:14;0.63;;;0.40;;
12177;SDS011;6152;48.728;9.256;2024-03-02T14:23:40;0.40;;;0.40;;
12177;SDS011;6152;48.728;9.256;2024-03-02T14:26:06;0.30;;;0.30;;
12177;SDS011;6152;48.728;9.256;2024-03-02T14:28:33;0.55;;;0.40;;
12177;SDS011;6152;48.728;9.256;2024-03-02T14:30:59;0.80;;;0.68;;
12177;SDS011;6152;48.728;9.256;2024-03-02T14:33:26;1.27;;;0.50;;
12177;SDS011;6152;48.728;9.256;2024-03-02T14:35:53;0.30;;;0.30;;
12177;SDS011;6152;48.728;9.256;2024-03-02T14:38:19;1.25;;;0.30;;
12177;SDS011;6152;48.728;9.256;2024-03-02T14:40:45;0.65;;;0.30;;
12177;SDS011;6152;48.728;9.256;2024-03-02T14:43:11;0.30;;;0.30;;
12177;SDS011;6152;48.728;9.256;2024-03-02T14:45:38;0.85;;;0.47;;
12177;SDS011;6152;48.728;9.256;2024-03-02T14:48:04;0.55;;;0.50;;
12177;SDS011;6152;48.728;9.256;2024-03-02T14:50:31;0.98;;;0.68;;
12177;SDS011;6152;48.728;9.256;2024-03-02T14:52:58;0.73;;;0.50;;
12177;SDS011;6152;48.728;9.256;2024-03-02T14:55:25;0.70;;;0.70;;
12177;SDS011;6152;48.728;9.256;2024-03-02T14:57:51;2.13;;;0.50;;
12177;SDS011;6152;48.728;9.256;2024-03-02T15:00:18;0.88;;;0.30;;
12177;SDS011;6152;48.728;9.256;2024-03-02T15:02:44;0.70;;;0.70;;
12177;SDS011;6152;48.728;9.256;2024-03-02T15:05:10;1.27;;;0.65;;